Terminal Aerodrome Forecast
Issued by NWS

Home | Current Version | Previous Version | Graphics & Text | Print | Product List | Glossary On
Versions: 1 2 3 4 5 6 7 8 9 10 11 12 13 14 15 16 17 18 19 20 21 22 23 24
000
FTUS43 KLOT 300534
TAFGYY
TAF
KGYY 300534Z 3006/0106 04012G18KT P6SM -SHRA OVC018
     FM300800 03012KT P6SM VCSH OVC008
     FM301600 05015G25KT P6SM VCSH OVC012
     FM302100 05014G21KT 6SM -SHRA SCT009 OVC015
     FM010000 04009KT P6SM OVC007=

USA.gov is the U.S. government's official web portal to all federal, state and local government web resources and services.